Forside
METAR-TAF:

METAR-TAF

Lufthavne :

Kenosha, Wisconsin, USA

Breddekreds: 42-35-42N, længdekreds: 087-56-17W, højde: 226 m

Aktuelle vejr

Denne rapport blev lavet for 51 minutter siden, kl. 05:53 UTC
Vind stille
Temperatur 15°C
Fugtighed 88%
Tryk 1019 hPa
Sigt: 8.0 km
skyfri
dis

METAR: KENW 060553Z AUTO 00000KT 5SM BR CLR 15/13 A3010 RMK AO2 SLP192 T01500133 10222 20139 402500094 51004

Tid: 01:44 (06:44 UTC)

Vejrudsigter

Denne rapport blev lavet for 1 time og 24 minutter siden, kl. 05:20 UTC
Foreløbig gælder fra 06 på 06 UTC til 07 på 06 UTC
Vind 3 kt fra sydvest
Sigt: 10 km
Nogle få skyer i en højde af 9000 ft
Fra 06 på 1700 UTC
Vind 7 kt fra østsydøst
Sigt: 10 km
Spredte skyer i en højde af 6000 ft
Fra 07 på 0200 UTC
Vind 3 kt fra varierende retninger
Sigt: 10 km
skyfri

TAF: KENW 060520Z 0606/0706 22003KT P6SM FEW090 FM061700 12007KT P6SM SCT060 FM070200 VRB03KT P6SM SKC

Vejrobservationer og prognoser fra mere end 4000 lufthavne (METAR og TAF).

De gule og røde prikker repræsenterer de meteorologiske stationer.

Flyt musen over at se navnet på stationen.

Så klik over at se vejr observationer og prognoser.

At skifte det kort: Klik på de grønne knapper med et sort kors for at zoome ind; på den grønne knap med en bindestreg for at zoome ud; eller på de grønne pile for tilstødende kort.


METAR-TAF: